Time;durP1;ratioP1;P1;durP2;ratioP2;P2;SDS_P1;SDS_P2;PMS_P1;PMS_P2;Temp;Humidity;BMP_temperature;BMP_pressure;BME280_temperature;BME280_humidity;BME280_pressure;Samples;Min_cycle;Max_cycle;Signal;HPM_P1;HPM_P2
2023/06/29 03:02:02;;;;;;;51.65;32.55;;;18.50;99.90;;;;;;5272068;23;19957;-75
2023/06/29 03:04:28;;;;;;;46.55;30.08;;;18.40;99.90;;;;;;4994041;28;20066;-75
2023/06/29 03:06:53;;;;;;;49.28;31.17;;;18.40;99.90;;;;;;4994493;28;20046;-75
2023/06/29 03:09:19;;;;;;;47.00;30.30;;;18.50;99.90;;;;;;4992696;28;20479;-75
2023/06/29 03:11:45;;;;;;;46.78;29.13;;;18.50;99.90;;;;;;4992559;28;20046;-76
2023/06/29 03:14:10;;;;;;;48.03;29.95;;;18.50;99.90;;;;;;4992553;28;20046;-75
2023/06/29 03:16:36;;;;;;;43.78;29.25;;;18.50;99.90;;;;;;4992790;28;20105;-76
2023/06/29 03:19:02;;;;;;;54.80;31.50;;;18.50;99.90;;;;;;4993923;28;20035;-75
2023/06/29 03:21:27;;;;;;;46.53;27.85;;;18.50;99.90;;;;;;4993959;28;20451;-76
2023/06/29 03:23:53;;;;;;;48.88;30.55;;;18.50;99.90;;;;;;4992911;28;20050;-76
2023/06/29 03:26:18;;;;;;;43.60;28.55;;;18.50;99.90;;;;;;4993086;28;20042;-76
2023/06/29 03:28:44;;;;;;;45.38;28.77;;;18.40;99.90;;;;;;4992531;28;20496;-76
2023/06/29 03:31:10;;;;;;;44.78;28.95;;;18.50;99.90;;;;;;4993717;28;20049;-76
2023/06/29 03:33:35;;;;;;;44.50;29.33;;;18.50;99.90;;;;;;4992806;28;20042;-76
2023/06/29 03:36:01;;;;;;;48.08;27.92;;;18.50;99.90;;;;;;4992731;28;20376;-76
2023/06/29 03:38:27;;;;;;;40.65;27.00;;;18.40;99.90;;;;;;4992401;28;20050;-76
2023/06/29 03:40:52;;;;;;;44.28;28.35;;;18.50;99.90;;;;;;4992285;28;20046;-76
2023/06/29 03:43:18;;;;;;;45.67;27.38;;;18.50;99.90;;;;;;4992430;28;20201;-76
2023/06/29 03:45:43;;;;;;;42.03;26.65;;;18.50;99.90;;;;;;4992470;28;20043;-76
2023/06/29 03:48:09;;;;;;;41.03;27.17;;;18.50;99.90;;;;;;4993623;28;20045;-76
2023/06/29 03:50:34;;;;;;;43.55;26.60;;;18.50;99.90;;;;;;4994731;28;20061;-75
2023/06/29 03:53:01;;;;;;;40.22;26.10;;;18.50;99.90;;;;;;4997234;28;20050;-76
2023/06/29 03:55:27;;;;;;;37.45;25.38;;;18.50;99.90;;;;;;4996352;28;20042;-76
2023/06/29 03:57:54;;;;;;;41.80;25.38;;;18.50;99.90;;;;;;4996185;28;20047;-77
2023/06/29 04:00:20;;;;;;;38.40;24.50;;;18.50;99.90;;;;;;4996036;28;20047;-76
2023/06/29 04:02:45;;;;;;;38.15;24.40;;;18.50;99.90;;;;;;4996029;28;20065;-76
2023/06/29 04:05:11;;;;;;;37.85;23.50;;;18.50;99.90;;;;;;4977897;28;20057;-76
2023/06/29 04:07:36;;;;;;;36.17;23.67;;;18.60;99.90;;;;;;4969120;28;20071;-76
2023/06/29 04:10:02;;;;;;;34.85;22.63;;;18.50;99.90;;;;;;4976264;28;20070;-76
2023/06/29 04:12:28;;;;;;;37.60;23.17;;;18.50;99.90;;;;;;4976658;28;20061;-76
2023/06/29 04:14:54;;;;;;;42.20;25.10;;;18.50;99.90;;;;;;4976329;28;20440;-76
2023/06/29 04:17:19;;;;;;;33.35;23.00;;;18.50;99.90;;;;;;4958987;28;20121;-75
2023/06/29 04:19:45;;;;;;;37.97;23.33;;;18.60;99.90;;;;;;4975106;28;20045;-76
2023/06/29 04:22:10;;;;;;;37.38;22.67;;;18.60;99.90;;;;;;4974934;28;20473;-76
2023/06/29 04:24:36;;;;;;;34.10;22.63;;;18.60;99.90;;;;;;4975135;28;20046;-77
2023/06/29 04:27:02;;;;;;;37.10;22.83;;;18.60;99.90;;;;;;4975519;28;20026;-75
2023/06/29 04:29:27;;;;;;;39.13;23.05;;;18.60;99.90;;;;;;4974890;28;20397;-77
2023/06/29 04:31:54;;;;;;;32.47;21.80;;;18.60;99.90;;;;;;4975990;28;20097;-76
2023/06/29 04:34:21;;;;;;;33.70;22.10;;;18.60;99.90;;;;;;4975942;28;20054;-75
2023/06/29 04:36:47;;;;;;;36.65;22.50;;;18.60;99.90;;;;;;4977140;28;20510;-77
2023/06/29 04:39:13;;;;;;;34.40;23.02;;;18.60;99.90;;;;;;4977152;28;20035;-75
2023/06/29 04:41:40;;;;;;;37.10;22.02;;;18.60;99.90;;;;;;4975568;28;20074;-75
2023/06/29 04:44:08;;;;;;;38.30;23.63;;;18.60;99.90;;;;;;4975203;28;20126;-76
2023/06/29 04:46:40;;;;;;;35.30;22.27;;;18.70;99.90;;;;;;4974643;28;20156;-75
2023/06/29 04:49:06;;;;;;;31.50;21.73;;;18.70;99.90;;;;;;4975870;28;20042;-76
2023/06/29 04:51:36;;;;;;;37.58;21.92;;;18.70;99.90;;;;;;4975682;28;20463;-76
2023/06/29 04:54:04;;;;;;;31.35;21.55;;;18.70;99.90;;;;;;4977667;28;20078;-74
2023/06/29 04:56:29;;;;;;;35.42;21.15;;;18.70;99.90;;;;;;4977106;28;20437;-74
2023/06/29 04:58:56;;;;;;;35.50;22.10;;;18.80;99.90;;;;;;4976541;28;20093;-75
2023/06/29 05:01:21;;;;;;;33.35;21.60;;;18.80;99.90;;;;;;4974677;28;20558;-75
2023/06/29 05:03:47;;;;;;;33.75;21.85;;;18.80;99.90;;;;;;4975670;28;20089;-74
2023/06/29 05:06:13;;;;;;;36.28;21.33;;;18.80;99.90;;;;;;4959560;28;20062;-75
2023/06/29 05:08:39;;;;;;;37.63;21.90;;;18.80;99.90;;;;;;4977191;28;20118;-76
2023/06/29 05:11:05;;;;;;;33.20;20.67;;;18.80;99.90;;;;;;4975488;28;20134;-76
2023/06/29 05:13:32;;;;;;;34.35;21.65;;;18.80;99.90;;;;;;4977359;28;20034;-76
2023/06/29 05:15:58;;;;;;;31.20;20.77;;;18.90;99.90;;;;;;4977252;28;20065;-76
2023/06/29 05:18:24;;;;;;;34.00;21.50;;;18.90;99.90;;;;;;4975331;28;20492;-76
2023/06/29 05:20:50;;;;;;;33.20;22.13;;;18.80;99.90;;;;;;4975963;28;20158;-74
2023/06/29 05:23:15;;;;;;;37.42;22.52;;;18.90;99.90;;;;;;4975438;28;20549;-75
2023/06/29 05:25:42;;;;;;;37.05;22.05;;;18.90;99.90;;;;;;4975170;28;20050;-75
2023/06/29 05:28:07;;;;;;;37.15;22.58;;;18.90;99.90;;;;;;4976651;28;20038;-75
2023/06/29 05:30:34;;;;;;;37.28;22.85;;;18.90;99.90;;;;;;4974967;28;20042;-76
2023/06/29 05:32:59;;;;;;;34.83;22.05;;;18.90;99.90;;;;;;4975258;28;20105;-76
2023/06/29 05:35:25;;;;;;;32.30;21.85;;;18.90;99.90;;;;;;4975601;28;20058;-75
2023/06/29 05:37:50;;;;;;;36.20;21.67;;;18.90;99.90;;;;;;4975220;28;20123;-75
2023/06/29 05:40:16;;;;;;;41.53;23.92;;;18.90;99.90;;;;;;4975620;28;20393;-76
2023/06/29 05:42:42;;;;;;;40.85;23.55;;;18.90;99.90;;;;;;4974791;28;20035;-76
2023/06/29 05:45:08;;;;;;;43.35;24.15;;;18.90;99.90;;;;;;4975104;28;20051;-75
2023/06/29 05:47:33;;;;;;;36.50;22.75;;;18.90;99.90;;;;;;4974815;28;20043;-75
2023/06/29 05:49:59;;;;;;;39.55;23.65;;;18.90;99.90;;;;;;4975979;28;20039;-76
2023/06/29 05:52:25;;;;;;;37.30;23.27;;;18.90;99.90;;;;;;4975911;28;20097;-76
2023/06/29 05:54:50;;;;;;;36.55;22.88;;;19.00;99.90;;;;;;4974679;28;20043;-75
2023/06/29 05:57:16;;;;;;;37.97;23.23;;;19.00;99.90;;;;;;4974871;28;20047;-75
2023/06/29 05:59:42;;;;;;;36.70;23.08;;;19.00;99.90;;;;;;4974873;28;20432;-76
2023/06/29 06:02:08;;;;;;;37.10;23.98;;;19.00;99.90;;;;;;4974299;28;20047;-75
2023/06/29 06:04:35;;;;;;;37.90;23.58;;;19.00;99.90;;;;;;4974436;28;20050;-75
2023/06/29 06:07:01;;;;;;;40.38;25.23;;;19.00;99.90;;;;;;4974379;28;20053;-76
2023/06/29 06:09:27;;;;;;;38.13;23.95;;;19.00;99.90;;;;;;4975543;28;20049;-75
2023/06/29 06:11:54;;;;;;;40.55;23.80;;;19.10;99.90;;;;;;4974144;28;20046;-75
2023/06/29 06:14:20;;;;;;;41.83;24.80;;;19.00;99.90;;;;;;4974075;28;20046;-75
2023/06/29 06:16:46;;;;;;;39.72;24.50;;;19.10;99.90;;;;;;4975706;28;20054;-75
2023/06/29 06:19:11;;;;;;;43.20;25.33;;;19.10;99.90;;;;;;4974190;28;20129;-75
2023/06/29 06:21:37;;;;;;;39.70;25.05;;;19.10;99.90;;;;;;4974133;28;20046;-75
2023/06/29 06:24:03;;;;;;;40.88;24.33;;;19.00;99.90;;;;;;4975364;28;20481;-75
2023/06/29 06:26:29;;;;;;;43.28;24.38;;;19.10;99.90;;;;;;4974039;28;20043;-76
2023/06/29 06:28:54;;;;;;;39.25;24.95;;;19.00;99.90;;;;;;4973945;28;20038;-75
2023/06/29 06:31:20;;;;;;;39.47;25.58;;;19.10;99.90;;;;;;4973871;28;20050;-75
2023/06/29 06:33:46;;;;;;;40.22;24.58;;;19.10;99.90;;;;;;4973794;28;20055;-75
2023/06/29 06:36:11;;;;;;;40.80;26.50;;;19.10;99.90;;;;;;4975115;28;20045;-76
2023/06/29 06:38:37;;;;;;;39.63;25.55;;;19.10;99.90;;;;;;4974078;28;20082;-75
2023/06/29 06:41:03;;;;;;;42.65;26.60;;;19.10;99.90;;;;;;4975179;28;20039;-76
2023/06/29 06:43:28;;;;;;;41.00;26.13;;;19.10;99.90;;;;;;4973786;28;20531;-76
2023/06/29 06:45:54;;;;;;;42.30;25.83;;;19.20;99.90;;;;;;4973726;28;20042;-76
2023/06/29 06:48:19;;;;;;;39.95;25.95;;;19.20;99.90;;;;;;4975002;28;20035;-76
2023/06/29 06:50:45;;;;;;;43.60;26.30;;;19.10;99.90;;;;;;4973556;28;20046;-75
2023/06/29 06:53:11;;;;;;;42.95;26.35;;;19.10;99.90;;;;;;4973594;28;20078;-76
2023/06/29 06:55:37;;;;;;;43.63;26.38;;;19.20;99.90;;;;;;4973792;28;20045;-75
2023/06/29 06:58:03;;;;;;;44.25;27.48;;;19.20;99.90;;;;;;4974709;28;20039;-76
2023/06/29 07:00:28;;;;;;;42.88;26.85;;;19.20;99.90;;;;;;4974482;28;20039;-76
2023/06/29 07:02:54;;;;;;;46.47;27.58;;;19.20;99.90;;;;;;4973542;28;20055;-76
2023/06/29 07:05:19;;;;;;;46.00;26.58;;;19.20;99.90;;;;;;4973636;28;20047;-75
2023/06/29 07:07:46;;;;;;;47.60;27.83;;;19.20;99.90;;;;;;4973352;28;20515;-76
2023/06/29 07:10:12;;;;;;;45.35;27.58;;;19.20;99.90;;;;;;4973286;28;20106;-75
2023/06/29 07:12:38;;;;;;;47.63;27.08;;;19.20;99.90;;;;;;4973677;28;20097;-75
2023/06/29 07:15:04;;;;;;;46.15;27.80;;;19.30;99.90;;;;;;4974560;28;20077;-76
2023/06/29 07:17:30;;;;;;;47.75;27.55;;;19.30;99.90;;;;;;4974981;28;20128;-76
2023/06/29 07:19:56;;;;;;;48.88;28.48;;;19.30;99.90;;;;;;4973603;28;20047;-76
2023/06/29 07:22:22;;;;;;;47.10;27.60;;;19.40;99.90;;;;;;4973020;28;20046;-75
2023/06/29 07:24:47;;;;;;;44.72;26.40;;;19.40;99.90;;;;;;4972659;28;20162;-75
2023/06/29 07:27:13;;;;;;;44.45;26.30;;;19.40;99.90;;;;;;4974699;28;20031;-75
2023/06/29 07:29:42;;;;;;;46.33;27.05;;;19.50;99.90;;;;;;4973200;28;20093;-74
2023/06/29 07:32:09;;;;;;;41.53;26.17;;;19.50;99.90;;;;;;4973616;28;20082;-75
2023/06/29 07:34:34;;;;;;;46.50;26.83;;;19.60;99.90;;;;;;4975887;28;20101;-77
2023/06/29 07:37:00;;;;;;;40.10;24.92;;;19.60;99.90;;;;;;4973053;28;20488;-75
2023/06/29 07:39:27;;;;;;;41.88;26.15;;;19.70;99.90;;;;;;4964002;28;20050;-75
2023/06/29 07:41:53;;;;;;;41.78;25.83;;;19.70;99.90;;;;;;4963621;28;20556;-75
2023/06/29 07:44:18;;;;;;;45.05;26.25;;;19.70;99.90;;;;;;4962764;28;20118;-74
2023/06/29 07:46:44;;;;;;;42.28;25.83;;;19.80;99.90;;;;;;4964083;28;20472;-75
2023/06/29 07:49:21;;;;;;;41.35;25.80;;;19.80;99.90;;;;;;4962405;28;20035;-74
2023/06/29 07:51:47;;;;;;;42.47;25.67;;;19.80;99.90;;;;;;4962709;28;20115;-74
2023/06/29 07:54:13;;;;;;;44.53;25.45;;;19.90;99.90;;;;;;4964436;28;20396;-74
2023/06/29 07:56:38;;;;;;;40.35;24.73;;;19.90;99.90;;;;;;4964620;28;20039;-75
2023/06/29 07:59:04;;;;;;;41.92;25.65;;;20.00;99.90;;;;;;4961725;28;20035;-73
2023/06/29 08:01:30;;;;;;;49.60;27.05;;;20.00;99.90;;;;;;4963305;28;20083;-74
2023/06/29 08:03:55;;;;;;;45.63;27.15;;;20.10;99.90;;;;;;4962684;28;20161;-75
2023/06/29 08:06:21;;;;;;;42.65;26.30;;;20.10;99.90;;;;;;4961970;28;20038;-74
2023/06/29 08:08:47;;;;;;;41.08;26.58;;;20.20;99.90;;;;;;4963683;28;20046;-74
2023/06/29 08:11:13;;;;;;;42.13;26.75;;;20.20;99.90;;;;;;4962095;28;20118;-75
2023/06/29 08:13:40;;;;;;;43.38;27.88;;;20.20;99.90;;;;;;4946230;28;20150;-75
2023/06/29 08:16:06;;;;;;;46.08;26.48;;;20.20;99.90;;;;;;4947406;28;20046;-74
2023/06/29 08:18:31;;;;;;;42.08;25.88;;;20.20;99.90;;;;;;4963460;28;20051;-74
2023/06/29 08:20:57;;;;;;;42.83;25.90;;;20.20;99.90;;;;;;4962151;28;20114;-75
2023/06/29 08:23:23;;;;;;;39.70;24.98;;;20.20;99.90;;;;;;4963459;28;20051;-75
2023/06/29 08:25:48;;;;;;;42.70;25.85;;;20.10;99.90;;;;;;4958570;28;20039;-75
2023/06/29 08:28:14;;;;;;;41.08;24.17;;;20.10;99.90;;;;;;4953282;29;20067;-74
2023/06/29 08:30:40;;;;;;;36.60;23.38;;;20.10;99.90;;;;;;4954706;28;20036;-74
2023/06/29 08:33:05;;;;;;;41.25;24.88;;;20.00;99.90;;;;;;4956302;28;20047;-75
2023/06/29 08:35:31;;;;;;;39.20;24.02;;;20.00;99.90;;;;;;4962830;28;20046;-74
2023/06/29 08:37:57;;;;;;;40.85;24.60;;;20.00;99.90;;;;;;4966800;28;20392;-75
2023/06/29 08:40:23;;;;;;;39.50;25.50;;;20.00;99.90;;;;;;4964793;28;20130;-74
2023/06/29 08:42:50;;;;;;;39.13;25.55;;;19.90;99.90;;;;;;4977078;28;20035;-75
2023/06/29 08:45:16;;;;;;;44.30;25.38;;;20.00;99.90;;;;;;4975926;28;20133;-74
2023/06/29 08:47:43;;;;;;;36.60;24.38;;;20.00;99.90;;;;;;4976013;28;20182;-74
2023/06/29 08:50:10;;;;;;;47.90;26.98;;;20.00;99.90;;;;;;4975898;28;20046;-74
2023/06/29 08:52:36;;;;;;;42.75;26.40;;;20.00;99.90;;;;;;4977189;28;20078;-74
2023/06/29 08:55:03;;;;;;;43.28;27.02;;;20.00;99.90;;;;;;4976490;28;20061;-73
2023/06/29 08:57:32;;;;;;;45.47;26.98;;;20.00;99.90;;;;;;4975540;28;20124;-74
2023/06/29 09:00:03;;;;;;;44.53;26.55;;;20.00;99.90;;;;;;4973931;28;20035;-75
2023/06/29 09:02:29;;;;;;;41.25;26.15;;;20.00;99.90;;;;;;4976746;28;20043;-74
2023/06/29 09:04:55;;;;;;;39.40;24.25;;;20.00;99.90;;;;;;4959398;28;20126;-74
2023/06/29 09:07:20;;;;;;;40.22;26.00;;;20.10;99.90;;;;;;4976255;28;20051;-75
2023/06/29 09:09:46;;;;;;;40.30;25.08;;;20.10;99.90;;;;;;4975462;28;20049;-75
2023/06/29 09:12:12;;;;;;;35.17;23.63;;;20.00;99.90;;;;;;4976479;28;20034;-75
2023/06/29 09:14:44;;;;;;;36.28;23.15;;;20.10;99.90;;;;;;4975554;28;20042;-74
2023/06/29 09:17:17;;;;;;;36.05;24.55;;;20.10;99.90;;;;;;4975625;28;20117;-74
2023/06/29 09:19:56;;;;;;;34.15;22.67;;;20.10;99.90;;;;;;4975699;28;20463;-75
2023/06/29 09:22:26;;;;;;;34.08;21.92;;;20.00;99.90;;;;;;4976351;28;20035;-73
2023/06/29 09:24:58;;;;;;;34.50;22.33;;;20.00;99.90;;;;;;4975434;28;20127;-74
2023/06/29 09:27:26;;;;;;;33.80;21.70;;;20.00;99.90;;;;;;4975083;28;20042;-74
2023/06/29 09:29:53;;;;;;;36.20;24.27;;;20.00;99.90;;;;;;4958978;28;20039;-75
2023/06/29 09:32:19;;;;;;;35.72;23.45;;;20.00;99.90;;;;;;4976517;28;20101;-75
2023/06/29 09:34:46;;;;;;;35.75;23.33;;;20.00;99.90;;;;;;4976290;28;20038;-74
2023/06/29 09:37:16;;;;;;;34.50;22.65;;;20.10;99.90;;;;;;4975105;28;20050;-75
2023/06/29 09:39:56;;;;;;;37.08;23.13;;;20.00;99.90;;;;;;4974844;28;20070;-75
2023/06/29 09:42:23;;;;;;;36.63;22.63;;;20.10;99.90;;;;;;4974707;28;20042;-75
2023/06/29 09:44:49;;;;;;;38.50;22.30;;;20.10;99.90;;;;;;4976048;28;20038;-74
2023/06/29 09:47:17;;;;;;;37.15;23.25;;;20.20;99.90;;;;;;4975803;28;20441;-75
2023/06/29 09:49:50;;;;;;;33.25;22.20;;;20.20;99.90;;;;;;4974945;28;20555;-74
2023/06/29 09:52:17;;;;;;;37.95;23.48;;;20.20;99.90;;;;;;4974552;28;20089;-73
2023/06/29 09:54:43;;;;;;;36.22;23.95;;;20.20;99.90;;;;;;4975815;28;20039;-76
2023/06/29 09:57:12;;;;;;;36.97;23.65;;;20.20;99.90;;;;;;4976041;28;20101;-74
2023/06/29 09:59:44;;;;;;;36.63;23.95;;;20.30;99.90;;;;;;4974684;28;20039;-74
2023/06/29 10:02:10;;;;;;;38.97;23.77;;;20.30;99.90;;;;;;4974226;28;20050;-75
2023/06/29 10:04:36;;;;;;;39.95;25.00;;;20.30;99.90;;;;;;4974234;28;20054;-74
2023/06/29 10:07:08;;;;;;;42.45;25.38;;;20.30;99.90;;;;;;4974315;28;20043;-75
2023/06/29 10:09:37;;;;;;;38.58;24.88;;;20.30;99.90;;;;;;4974486;28;20056;-74
2023/06/29 10:12:05;;;;;;;41.78;26.50;;;20.40;99.90;;;;;;4975815;28;20400;-75
2023/06/29 10:14:33;;;;;;;39.38;25.80;;;20.40;99.90;;;;;;4975695;28;20050;-74
2023/06/29 10:17:02;;;;;;;41.40;27.35;;;20.40;99.90;;;;;;4975390;28;20101;-75
2023/06/29 10:19:29;;;;;;;40.90;25.90;;;20.50;99.90;;;;;;4974353;28;20465;-75
2023/06/29 10:22:01;;;;;;;41.35;27.05;;;20.50;99.90;;;;;;4975362;28;20049;-74
2023/06/29 10:24:35;;;;;;;41.53;27.77;;;20.50;99.90;;;;;;4974326;28;20457;-75
2023/06/29 10:27:03;;;;;;;40.13;26.37;;;20.50;99.90;;;;;;4974064;28;20039;-74
2023/06/29 10:29:28;;;;;;;40.95;26.65;;;20.40;99.90;;;;;;4974019;28;20050;-74
2023/06/29 10:31:58;;;;;;;40.10;26.45;;;20.40;99.90;;;;;;4973858;28;20047;-75
2023/06/29 10:34:27;;;;;;;41.38;26.27;;;20.40;99.90;;;;;;4975413;28;20049;-73
2023/06/29 10:36:58;;;;;;;44.88;26.65;;;20.40;99.90;;;;;;4975082;28;20046;-75
2023/06/29 10:39:41;;;;;;;46.80;27.35;;;20.30;99.90;;;;;;4974140;28;20047;-75
2023/06/29 10:42:12;;;;;;;45.33;28.33;;;20.30;99.90;;;;;;4973735;28;20131;-75
2023/06/29 10:44:38;;;;;;;42.05;27.83;;;20.30;99.90;;;;;;4973937;28;20077;-75
2023/06/29 10:47:04;;;;;;;42.30;27.58;;;20.30;99.90;;;;;;4974971;28;20050;-76
2023/06/29 10:49:29;;;;;;;42.55;27.15;;;20.30;99.90;;;;;;4973490;28;20046;-75
2023/06/29 10:52:02;;;;;;;45.97;28.90;;;20.30;99.90;;;;;;4973522;28;20488;-75
2023/06/29 10:54:29;;;;;;;41.03;26.77;;;20.30;99.90;;;;;;4973535;28;20051;-76
2023/06/29 10:57:05;;;;;;;45.97;27.67;;;20.40;99.90;;;;;;4973466;28;20523;-75
2023/06/29 10:59:33;;;;;;;42.83;27.33;;;20.40;99.90;;;;;;4973209;28;20050;-75
2023/06/29 11:01:59;;;;;;;42.55;27.65;;;20.50;99.90;;;;;;4962283;28;20444;-75
2023/06/29 11:04:25;;;;;;;42.80;28.15;;;20.50;99.90;;;;;;4954042;28;20044;-75
2023/06/29 11:06:51;;;;;;;42.65;27.45;;;20.70;99.90;;;;;;4954078;28;20039;-75
2023/06/29 11:09:17;;;;;;;48.75;27.95;;;20.80;99.90;;;;;;4955508;28;20070;-75
2023/06/29 11:11:45;;;;;;;43.03;28.13;;;20.90;99.90;;;;;;4955417;28;20055;-74
2023/06/29 11:14:14;;;;;;;44.55;28.35;;;20.90;99.90;;;;;;4953931;29;20057;-75
2023/06/29 11:16:40;;;;;;;44.03;28.70;;;20.90;99.90;;;;;;4955484;28;20067;-75
2023/06/29 11:19:06;;;;;;;46.97;28.52;;;21.00;99.90;;;;;;4953921;29;20093;-75
2023/06/29 11:21:32;;;;;;;44.47;28.25;;;21.00;99.90;;;;;;4953730;28;20055;-75
2023/06/29 11:23:58;;;;;;;47.00;29.65;;;21.10;99.90;;;;;;4954276;28;20055;-75
2023/06/29 11:26:24;;;;;;;44.95;28.33;;;21.30;99.90;;;;;;4953819;29;20052;-75
2023/06/29 11:28:51;;;;;;;41.42;27.10;;;21.40;99.90;;;;;;4953807;28;20531;-74
2023/06/29 11:31:17;;;;;;;41.20;27.25;;;21.60;99.90;;;;;;4954928;28;20043;-74
2023/06/29 11:33:49;;;;;;;42.50;27.38;;;21.80;99.90;;;;;;4953821;29;20357;-75
2023/06/29 11:36:28;;;;;;;40.08;25.67;;;22.00;99.90;;;;;;4955073;28;20035;-74
2023/06/29 11:39:08;;;;;;;45.28;29.40;;;22.20;99.90;;;;;;4954157;29;20047;-74
2023/06/29 11:41:38;;;;;;;47.75;27.33;;;22.30;99.90;;;;;;4955958;28;20043;-75
2023/06/29 11:44:04;;;;;;;46.40;29.50;;;22.40;99.90;;;;;;4954591;29;20390;-74
2023/06/29 11:46:34;;;;;;;44.08;29.08;;;22.30;99.90;;;;;;4953880;29;20103;-74
2023/06/29 11:49:06;;;;;;;43.35;29.50;;;22.30;99.90;;;;;;4953840;29;20516;-74
2023/06/29 11:51:38;;;;;;;45.80;28.35;;;22.20;99.90;;;;;;4953958;28;20051;-75
2023/06/29 11:54:05;;;;;;;40.38;26.90;;;22.10;99.90;;;;;;4953733;29;20043;-74
2023/06/29 11:56:36;;;;;;;41.38;25.67;;;22.10;99.90;;;;;;4953914;29;20473;-74
2023/06/29 11:59:06;;;;;;;40.85;27.42;;;22.20;99.90;;;;;;4953692;29;20047;-76
2023/06/29 12:01:32;;;;;;;40.30;27.45;;;22.10;99.90;;;;;;4953509;28;20418;-76
2023/06/29 12:03:58;;;;;;;48.97;29.10;;;22.10;99.90;;;;;;4953540;29;20043;-75
2023/06/29 12:06:24;;;;;;;43.60;27.17;;;22.30;99.90;;;;;;4953533;29;20425;-74
2023/06/29 12:08:52;;;;;;;42.88;27.15;;;22.50;99.90;;;;;;4953569;28;20039;-73
2023/06/29 12:11:19;;;;;;;47.55;27.63;;;22.60;99.90;;;;;;4955284;28;20497;-75
2023/06/29 12:13:45;;;;;;;45.30;28.25;;;22.60;99.90;;;;;;4957243;28;20047;-74
2023/06/29 12:16:11;;;;;;;42.35;26.40;;;22.60;99.90;;;;;;4957117;28;20047;-74
2023/06/29 12:18:37;;;;;;;45.90;26.27;;;22.60;99.90;;;;;;4957226;29;20043;-74
2023/06/29 12:21:03;;;;;;;48.22;27.42;;;22.70;99.90;;;;;;4956850;28;20488;-74
2023/06/29 12:23:29;;;;;;;43.30;27.48;;;22.70;99.90;;;;;;4957263;28;20054;-75
2023/06/29 12:25:55;;;;;;;44.22;26.77;;;22.80;99.90;;;;;;4956930;28;20638;-75
2023/06/29 12:28:21;;;;;;;40.83;25.60;;;22.90;99.90;;;;;;4957177;29;20058;-75
2023/06/29 12:30:47;;;;;;;43.22;26.40;;;23.00;99.90;;;;;;4958017;28;20067;-75
2023/06/29 12:33:13;;;;;;;44.45;28.10;;;23.20;99.90;;;;;;4956813;28;20046;-75
2023/06/29 12:35:40;;;;;;;42.97;27.20;;;23.40;99.90;;;;;;4958019;28;20087;-75
2023/06/29 12:38:05;;;;;;;41.30;26.05;;;23.50;99.90;;;;;;4956766;29;20597;-75
2023/06/29 12:40:31;;;;;;;43.55;26.30;;;23.50;99.90;;;;;;4957998;28;20094;-75
2023/06/29 12:42:59;;;;;;;37.83;25.17;;;23.50;99.90;;;;;;4956690;28;20102;-75
2023/06/29 12:45:24;;;;;;;42.60;25.88;;;23.40;99.90;;;;;;4956803;29;20059;-76
2023/06/29 12:47:50;;;;;;;39.00;25.35;;;23.20;99.90;;;;;;4956592;29;20043;-74
2023/06/29 12:50:17;;;;;;;40.08;25.80;;;23.10;99.90;;;;;;4956461;28;20054;-75
2023/06/29 12:52:45;;;;;;;42.35;27.75;;;23.00;99.90;;;;;;4956653;28;20155;-76
2023/06/29 12:55:11;;;;;;;41.80;27.27;;;22.80;99.90;;;;;;4956463;29;20505;-76
2023/06/29 12:57:39;;;;;;;40.25;25.33;;;22.70;99.90;;;;;;4956403;28;20085;-76
2023/06/29 13:00:05;;;;;;;37.85;25.45;;;22.60;99.90;;;;;;4956423;29;20051;-75
2023/06/29 13:02:31;;;;;;;35.90;22.08;;;22.60;99.90;;;;;;4957903;28;20035;-75
2023/06/29 13:04:57;;;;;;;28.60;18.92;;;22.60;99.90;;;;;;4959262;28;20051;-78
2023/06/29 13:07:23;;;;;;;29.17;16.95;;;22.50;99.90;;;;;;4957847;29;20043;-77
2023/06/29 13:09:51;;;;;;;28.17;18.45;;;22.40;99.90;;;;;;4958950;28;20035;-76
2023/06/29 13:12:17;;;;;;;26.45;17.05;;;22.30;99.90;;;;;;4941337;29;20046;-75
2023/06/29 13:14:44;;;;;;;23.65;14.30;;;22.10;99.90;;;;;;4957851;28;20362;-75
2023/06/29 13:17:10;;;;;;;24.88;15.73;;;22.10;99.90;;;;;;4956347;28;20051;-75
2023/06/29 13:19:39;;;;;;;28.08;16.70;;;22.10;99.90;;;;;;4957758;28;20069;-76
2023/06/29 13:22:04;;;;;;;29.13;18.30;;;22.00;99.90;;;;;;4955896;28;20039;-77
2023/06/29 13:24:31;;;;;;;30.90;18.05;;;21.80;99.90;;;;;;4956990;28;20521;-77
2023/06/29 13:26:57;;;;;;;33.92;19.08;;;21.70;99.90;;;;;;4958447;28;20396;-74
2023/06/29 13:29:23;;;;;;;32.20;20.52;;;21.60;99.90;;;;;;4957253;28;20047;-76
2023/06/29 13:31:49;;;;;;;36.75;20.83;;;21.40;99.90;;;;;;4956275;28;20093;-75
2023/06/29 13:34:16;;;;;;;33.40;20.35;;;21.30;99.90;;;;;;4957279;28;20058;-75
2023/06/29 13:36:41;;;;;;;32.50;20.20;;;21.10;99.90;;;;;;4957251;28;20552;-75
2023/06/29 13:39:07;;;;;;;30.52;19.30;;;21.00;99.90;;;;;;4957346;28;20078;-74
2023/06/29 13:41:35;;;;;;;31.08;19.48;;;20.80;99.90;;;;;;4955637;28;20031;-75
2023/06/29 13:44:01;;;;;;;31.73;18.00;;;20.80;99.90;;;;;;4939638;29;20043;-77
2023/06/29 13:46:27;;;;;;;31.45;18.58;;;20.70;99.90;;;;;;4956752;28;20118;-74
2023/06/29 13:48:52;;;;;;;30.02;19.35;;;20.60;99.90;;;;;;4955464;29;20062;-74
2023/06/29 13:51:18;;;;;;;31.73;18.88;;;20.60;99.90;;;;;;4955412;28;20066;-75
2023/06/29 13:53:43;;;;;;;33.03;19.65;;;20.50;99.90;;;;;;4939464;29;20472;-75
2023/06/29 13:56:09;;;;;;;35.42;19.45;;;20.40;99.90;;;;;;4955350;28;20047;-75
2023/06/29 13:58:35;;;;;;;31.85;18.35;;;20.40;99.90;;;;;;4956547;29;20043;-75
2023/06/29 14:01:00;;;;;;;33.38;20.77;;;20.40;99.90;;;;;;4955268;28;20039;-74
2023/06/29 14:03:26;;;;;;;34.47;19.95;;;20.30;99.90;;;;;;4956646;28;20549;-75
2023/06/29 14:05:51;;;;;;;35.63;20.00;;;20.20;99.90;;;;;;4956394;28;20438;-75
2023/06/29 14:08:17;;;;;;;33.90;21.15;;;20.20;99.90;;;;;;4955103;29;20047;-74
2023/06/29 14:10:43;;;;;;;35.88;21.70;;;20.20;99.90;;;;;;4956336;28;20046;-76
2023/06/29 14:13:09;;;;;;;37.05;22.00;;;20.20;99.90;;;;;;4956334;29;20094;-75
2023/06/29 14:15:36;;;;;;;38.60;23.58;;;20.30;99.90;;;;;;4955066;29;20404;-74
2023/06/29 14:18:03;;;;;;;35.28;21.52;;;20.30;99.90;;;;;;4956335;28;20392;-74
2023/06/29 14:20:28;;;;;;;34.42;22.15;;;20.40;99.90;;;;;;4956074;28;20114;-76
2023/06/29 14:22:54;;;;;;;35.50;21.90;;;20.40;99.90;;;;;;4956333;28;20123;-73
2023/06/29 14:25:21;;;;;;;38.17;22.50;;;20.40;99.90;;;;;;4956282;28;20050;-75
2023/06/29 14:27:46;;;;;;;37.67;23.55;;;20.40;99.90;;;;;;4956635;28;20047;-73
2023/06/29 14:30:12;;;;;;;41.38;24.50;;;20.50;99.90;;;;;;4956540;29;20090;-74
2023/06/29 14:32:39;;;;;;;39.78;24.27;;;20.50;99.90;;;;;;4938597;29;20047;-75
2023/06/29 14:35:05;;;;;;;38.50;24.27;;;20.50;99.90;;;;;;4955827;28;20049;-75
2023/06/29 14:37:31;;;;;;;41.25;25.85;;;20.50;99.90;;;;;;4954579;28;20118;-74
2023/06/29 14:39:57;;;;;;;39.60;24.00;;;20.60;99.90;;;;;;4955760;29;20158;-75
2023/06/29 14:42:22;;;;;;;43.13;24.85;;;20.70;99.90;;;;;;4954247;28;20050;-74
2023/06/29 14:44:48;;;;;;;44.25;25.80;;;20.80;99.90;;;;;;4954844;29;20048;-74
2023/06/29 14:47:14;;;;;;;37.50;23.60;;;20.80;99.90;;;;;;4954638;29;20043;-74
2023/06/29 14:49:39;;;;;;;38.28;22.17;;;20.90;99.90;;;;;;4954304;29;20480;-76
2023/06/29 14:52:05;;;;;;;31.85;18.42;;;20.90;99.90;;;;;;4954191;28;20043;-74
2023/06/29 14:54:31;;;;;;;28.63;16.33;;;20.90;99.90;;;;;;4954483;28;20097;-75
2023/06/29 14:56:57;;;;;;;25.48;16.40;;;20.90;99.90;;;;;;4955423;29;20524;-74
2023/06/29 14:59:23;;;;;;;29.10;15.52;;;20.90;99.90;;;;;;4954409;28;20113;-74
2023/06/29 15:01:49;;;;;;;26.08;15.18;;;20.90;99.90;;;;;;4955138;28;20473;-74
2023/06/29 15:04:15;;;;;;;28.42;17.08;;;20.90;99.90;;;;;;4954020;28;20043;-76
2023/06/29 15:06:42;;;;;;;32.78;17.02;;;20.90;99.90;;;;;;4954042;28;20102;-76
2023/06/29 15:09:08;;;;;;;37.63;20.65;;;20.80;99.90;;;;;;4953973;29;20489;-75
2023/06/29 15:11:34;;;;;;;48.42;22.60;;;20.90;99.90;;;;;;4953891;28;20047;-77
2023/06/29 15:14:01;;;;;;;52.67;25.42;;;20.90;99.90;;;;;;4954274;28;20075;-74
2023/06/29 15:16:29;;;;;;;49.28;25.67;;;21.10;99.90;;;;;;4954069;29;20575;-74
2023/06/29 15:18:54;;;;;;;49.45;25.58;;;21.30;99.90;;;;;;4953946;28;20042;-76
2023/06/29 15:21:20;;;;;;;50.90;25.33;;;21.40;99.90;;;;;;4955020;28;20047;-75
2023/06/29 15:23:46;;;;;;;45.97;23.92;;;21.60;99.90;;;;;;4955116;28;20075;-75
2023/06/29 15:26:11;;;;;;;41.65;22.85;;;21.70;99.90;;;;;;4953834;28;20047;-75